sensor_id;sensor_type;location;lat;lon;timestamp;pressure;altitude;pressure_sealevel;temperature;humidity
68656;BME280;55638;51.122;13.606;2023-12-28T00:00:32;99919.28;;;6.32;52.27
68656;BME280;55638;51.122;13.606;2023-12-28T00:02:04;99908.38;;;6.35;51.73
68656;BME280;55638;51.122;13.606;2023-12-28T00:03:36;99911.06;;;6.35;51.35
68656;BME280;55638;51.122;13.606;2023-12-28T00:05:08;99909.09;;;6.37;51.79
68656;BME280;55638;51.122;13.606;2023-12-28T00:06:40;99919.59;;;6.40;52.04
68656;BME280;55638;51.122;13.606;2023-12-28T00:08:12;99914.03;;;6.43;51.51
68656;BME280;55638;51.122;13.606;2023-12-28T00:09:44;99910.16;;;6.47;51.76
68656;BME280;55638;51.122;13.606;2023-12-28T00:11:16;99914.56;;;6.48;51.50
68656;BME280;55638;51.122;13.606;2023-12-28T00:12:48;99915.28;;;6.50;51.05
68656;BME280;55638;51.122;13.606;2023-12-28T00:14:20;99910.69;;;6.52;51.28
68656;BME280;55638;51.122;13.606;2023-12-28T00:15:51;99910.69;;;6.52;50.48
68656;BME280;55638;51.122;13.606;2023-12-28T00:17:23;99905.47;;;6.51;51.05
68656;BME280;55638;51.122;13.606;2023-12-28T00:18:55;99907.25;;;6.50;51.13
68656;BME280;55638;51.122;13.606;2023-12-28T00:20:27;99905.69;;;6.48;51.01
68656;BME280;55638;51.122;13.606;2023-12-28T00:21:59;99903.84;;;6.48;51.25
68656;BME280;55638;51.122;13.606;2023-12-28T00:23:31;99899.69;;;6.44;50.95
68656;BME280;55638;51.122;13.606;2023-12-28T00:25:04;99886.94;;;6.48;50.55
68656;BME280;55638;51.122;13.606;2023-12-28T00:26:36;99885.34;;;6.45;51.00
68656;BME280;55638;51.122;13.606;2023-12-28T00:28:09;99861.22;;;6.45;50.52
68656;BME280;55638;51.122;13.606;2023-12-28T00:29:41;99865.75;;;6.44;48.54
68656;BME280;55638;51.122;13.606;2023-12-28T00:31:14;99861.97;;;6.47;48.11
68656;BME280;55638;51.122;13.606;2023-12-28T00:32:48;99856.59;;;6.47;49.23
68656;BME280;55638;51.122;13.606;2023-12-28T00:34:20;99868.06;;;6.49;50.20
68656;BME280;55638;51.122;13.606;2023-12-28T00:35:52;99872.25;;;6.53;50.69
68656;BME280;55638;51.122;13.606;2023-12-28T00:37:23;99886.16;;;6.58;50.89
68656;BME280;55638;51.122;13.606;2023-12-28T00:38:56;99880.69;;;6.60;50.46
68656;BME280;55638;51.122;13.606;2023-12-28T00:40:29;99878.41;;;6.66;50.64
68656;BME280;55638;51.122;13.606;2023-12-28T00:42:01;99878.31;;;6.68;50.91
68656;BME280;55638;51.122;13.606;2023-12-28T00:43:33;99866.75;;;6.67;50.21
68656;BME280;55638;51.122;13.606;2023-12-28T00:45:06;99865.03;;;6.66;50.50
68656;BME280;55638;51.122;13.606;2023-12-28T00:46:38;99858.81;;;6.66;50.51
68656;BME280;55638;51.122;13.606;2023-12-28T00:48:10;99867.97;;;6.63;50.74
68656;BME280;55638;51.122;13.606;2023-12-28T00:49:42;99866.00;;;6.65;49.67
68656;BME280;55638;51.122;13.606;2023-12-28T00:51:14;99862.59;;;6.63;50.42
68656;BME280;55638;51.122;13.606;2023-12-28T00:52:46;99870.72;;;6.62;50.32
68656;BME280;55638;51.122;13.606;2023-12-28T00:54:19;99865.50;;;6.60;50.57
68656;BME280;55638;51.122;13.606;2023-12-28T00:55:52;99851.56;;;6.55;48.37
68656;BME280;55638;51.122;13.606;2023-12-28T00:57:23;99854.38;;;6.54;49.68
68656;BME280;55638;51.122;13.606;2023-12-28T00:58:55;99860.38;;;6.57;50.22
68656;BME280;55638;51.122;13.606;2023-12-28T01:00:27;99843.09;;;6.61;50.32
68656;BME280;55638;51.122;13.606;2023-12-28T01:02:00;99847.69;;;6.59;50.25
68656;BME280;55638;51.122;13.606;2023-12-28T01:03:32;99846.63;;;6.62;50.35
68656;BME280;55638;51.122;13.606;2023-12-28T01:05:04;99834.31;;;6.59;49.63
68656;BME280;55638;51.122;13.606;2023-12-28T01:06:36;99848.31;;;6.63;50.20
68656;BME280;55638;51.122;13.606;2023-12-28T01:08:08;99850.91;;;6.64;50.13
68656;BME280;55638;51.122;13.606;2023-12-28T01:09:40;99838.25;;;6.66;49.17
68656;BME280;55638;51.122;13.606;2023-12-28T01:11:12;99851.41;;;6.69;49.66
68656;BME280;55638;51.122;13.606;2023-12-28T01:12:44;99842.00;;;6.77;49.09
68656;BME280;55638;51.122;13.606;2023-12-28T01:14:16;99840.03;;;6.79;49.39
68656;BME280;55638;51.122;13.606;2023-12-28T01:15:48;99846.88;;;6.83;49.58
68656;BME280;55638;51.122;13.606;2023-12-28T01:17:21;99844.88;;;6.86;49.74
68656;BME280;55638;51.122;13.606;2023-12-28T01:18:53;99847.34;;;6.89;49.75
68656;BME280;55638;51.122;13.606;2023-12-28T01:20:25;99861.47;;;6.91;49.93
68656;BME280;55638;51.122;13.606;2023-12-28T01:21:57;99856.94;;;6.92;48.44
68656;BME280;55638;51.122;13.606;2023-12-28T01:23:29;99859.63;;;6.92;49.08
68656;BME280;55638;51.122;13.606;2023-12-28T01:25:02;99851.38;;;6.95;49.69
68656;BME280;55638;51.122;13.606;2023-12-28T01:26:34;99856.84;;;6.93;49.66
68656;BME280;55638;51.122;13.606;2023-12-28T01:28:06;99856.94;;;6.92;49.87
68656;BME280;55638;51.122;13.606;2023-12-28T01:29:38;99874.97;;;6.90;49.91
68656;BME280;55638;51.122;13.606;2023-12-28T01:31:10;99867.03;;;6.88;49.58
68656;BME280;55638;51.122;13.606;2023-12-28T01:32:42;99855.69;;;6.85;49.89
68656;BME280;55638;51.122;13.606;2023-12-28T01:34:14;99862.31;;;6.79;49.63
68656;BME280;55638;51.122;13.606;2023-12-28T01:35:46;99855.47;;;6.75;49.73
68656;BME280;55638;51.122;13.606;2023-12-28T01:37:18;99853.25;;;6.69;49.86
68656;BME280;55638;51.122;13.606;2023-12-28T01:38:49;99860.13;;;6.60;49.08
68656;BME280;55638;51.122;13.606;2023-12-28T01:40:21;99863.97;;;6.56;49.87
68656;BME280;55638;51.122;13.606;2023-12-28T01:41:53;99853.63;;;6.52;50.06
68656;BME280;55638;51.122;13.606;2023-12-28T01:43:25;99844.19;;;6.46;49.90
68656;BME280;55638;51.122;13.606;2023-12-28T01:44:57;99841.00;;;6.41;49.62
68656;BME280;55638;51.122;13.606;2023-12-28T01:46:29;99843.91;;;6.38;49.91
68656;BME280;55638;51.122;13.606;2023-12-28T01:48:03;99849.56;;;6.33;49.37
68656;BME280;55638;51.122;13.606;2023-12-28T01:49:36;99838.34;;;6.28;49.56
68656;BME280;55638;51.122;13.606;2023-12-28T01:51:09;99835.91;;;6.25;50.02
68656;BME280;55638;51.122;13.606;2023-12-28T01:52:41;99822.81;;;6.20;50.02
68656;BME280;55638;51.122;13.606;2023-12-28T01:54:13;99833.75;;;6.17;50.05
68656;BME280;55638;51.122;13.606;2023-12-28T01:55:45;99828.59;;;6.14;50.13
68656;BME280;55638;51.122;13.606;2023-12-28T01:57:17;99835.91;;;6.12;50.27
68656;BME280;55638;51.122;13.606;2023-12-28T01:58:50;99829.06;;;6.08;49.75
68656;BME280;55638;51.122;13.606;2023-12-28T02:00:24;99836.34;;;6.06;49.81
68656;BME280;55638;51.122;13.606;2023-12-28T02:01:56;99831.06;;;6.05;48.65
68656;BME280;55638;51.122;13.606;2023-12-28T02:03:28;99832.91;;;6.04;49.75
68656;BME280;55638;51.122;13.606;2023-12-28T02:05:01;99829.28;;;6.05;49.84
68656;BME280;55638;51.122;13.606;2023-12-28T02:06:33;99825.41;;;6.09;50.04
68656;BME280;55638;51.122;13.606;2023-12-28T02:08:05;99828.72;;;6.13;50.10
68656;BME280;55638;51.122;13.606;2023-12-28T02:09:37;99834.84;;;6.15;50.03
68656;BME280;55638;51.122;13.606;2023-12-28T02:11:09;99831.06;;;6.17;49.86
68656;BME280;55638;51.122;13.606;2023-12-28T02:12:42;99833.44;;;6.22;50.14
68656;BME280;55638;51.122;13.606;2023-12-28T02:14:14;99834.06;;;6.26;49.99
68656;BME280;55638;51.122;13.606;2023-12-28T02:15:50;99844.34;;;6.32;49.06
68656;BME280;55638;51.122;13.606;2023-12-28T02:17:33;99840.47;;;6.36;48.94
68656;BME280;55638;51.122;13.606;2023-12-28T02:19:19;99837.56;;;6.39;45.67
68656;BME280;55638;51.122;13.606;2023-12-28T02:20:55;99850.31;;;6.48;49.93
68656;BME280;55638;51.122;13.606;2023-12-28T02:22:29;99852.53;;;6.54;49.94
68656;BME280;55638;51.122;13.606;2023-12-28T02:24:01;99844.78;;;6.62;50.06
68656;BME280;55638;51.122;13.606;2023-12-28T02:25:33;99834.50;;;6.69;49.83
68656;BME280;55638;51.122;13.606;2023-12-28T02:27:05;99850.75;;;6.79;50.26
68656;BME280;55638;51.122;13.606;2023-12-28T02:28:37;99847.56;;;6.86;50.35
68656;BME280;55638;51.122;13.606;2023-12-28T02:30:10;99842.47;;;6.95;50.16
68656;BME280;55638;51.122;13.606;2023-12-28T02:31:46;99836.53;;;7.02;49.58
68656;BME280;55638;51.122;13.606;2023-12-28T02:33:35;99829.53;;;7.12;48.22
68656;BME280;55638;51.122;13.606;2023-12-28T02:35:33;99838.59;;;7.23;48.39
68656;BME280;55638;51.122;13.606;2023-12-28T02:37:06;99825.22;;;7.34;50.10
68656;BME280;55638;51.122;13.606;2023-12-28T02:38:39;99823.69;;;7.43;49.67
68656;BME280;55638;51.122;13.606;2023-12-28T02:40:14;99829.44;;;7.49;49.49
68656;BME280;55638;51.122;13.606;2023-12-28T02:41:47;99826.03;;;7.58;49.39
68656;BME280;55638;51.122;13.606;2023-12-28T02:43:19;99830.81;;;7.66;49.54
68656;BME280;55638;51.122;13.606;2023-12-28T02:44:51;99821.44;;;7.72;49.09
68656;BME280;55638;51.122;13.606;2023-12-28T02:46:23;99828.03;;;7.79;49.50
68656;BME280;55638;51.122;13.606;2023-12-28T02:47:55;99821.34;;;7.84;49.46
68656;BME280;55638;51.122;13.606;2023-12-28T02:49:27;99836.34;;;7.87;49.06
68656;BME280;55638;51.122;13.606;2023-12-28T02:50:59;99833.16;;;7.93;48.80
68656;BME280;55638;51.122;13.606;2023-12-28T02:52:31;99823.94;;;7.97;48.75
68656;BME280;55638;51.122;13.606;2023-12-28T02:54:03;99835.88;;;8.04;48.70
68656;BME280;55638;51.122;13.606;2023-12-28T02:55:35;99821.47;;;8.05;48.33
68656;BME280;55638;51.122;13.606;2023-12-28T02:57:07;99820.16;;;8.11;48.45
68656;BME280;55638;51.122;13.606;2023-12-28T02:58:38;99822.44;;;8.16;48.20
68656;BME280;55638;51.122;13.606;2023-12-28T03:00:11;99822.97;;;8.21;48.32
68656;BME280;55638;51.122;13.606;2023-12-28T03:01:43;99828.72;;;8.27;48.59
68656;BME280;55638;51.122;13.606;2023-12-28T03:03:15;99825.66;;;8.32;48.39
68656;BME280;55638;51.122;13.606;2023-12-28T03:04:47;99815.41;;;8.37;47.66
68656;BME280;55638;51.122;13.606;2023-12-28T03:06:19;99818.59;;;8.42;47.85
68656;BME280;55638;51.122;13.606;2023-12-28T03:07:51;99824.44;;;8.47;47.84
68656;BME280;55638;51.122;13.606;2023-12-28T03:09:23;99827.63;;;8.52;47.88
68656;BME280;55638;51.122;13.606;2023-12-28T03:10:55;99825.41;;;8.57;47.88
68656;BME280;55638;51.122;13.606;2023-12-28T03:12:28;99828.69;;;8.61;47.53
68656;BME280;55638;51.122;13.606;2023-12-28T03:13:59;99829.56;;;8.62;47.48
68656;BME280;55638;51.122;13.606;2023-12-28T03:15:33;99839.19;;;8.64;47.64
68656;BME280;55638;51.122;13.606;2023-12-28T03:17:05;99846.16;;;8.67;47.62
68656;BME280;55638;51.122;13.606;2023-12-28T03:18:36;99841.50;;;8.69;47.45
68656;BME280;55638;51.122;13.606;2023-12-28T03:20:09;99835.16;;;8.70;47.31
68656;BME280;55638;51.122;13.606;2023-12-28T03:21:42;99842.38;;;8.69;47.16
68656;BME280;55638;51.122;13.606;2023-12-28T03:23:13;99845.91;;;8.70;47.20
68656;BME280;55638;51.122;13.606;2023-12-28T03:24:46;99852.97;;;8.71;47.06
68656;BME280;55638;51.122;13.606;2023-12-28T03:26:18;99854.69;;;8.72;47.36
68656;BME280;55638;51.122;13.606;2023-12-28T03:27:50;99855.66;;;8.71;46.63
68656;BME280;55638;51.122;13.606;2023-12-28T03:29:23;99852.88;;;8.72;47.22
68656;BME280;55638;51.122;13.606;2023-12-28T03:30:55;99857.38;;;8.72;46.89
68656;BME280;55638;51.122;13.606;2023-12-28T03:32:27;99859.09;;;8.73;46.92
68656;BME280;55638;51.122;13.606;2023-12-28T03:33:59;99867.16;;;8.73;46.96
68656;BME280;55638;51.122;13.606;2023-12-28T03:35:31;99859.34;;;8.70;46.93
68656;BME280;55638;51.122;13.606;2023-12-28T03:37:03;99860.06;;;8.72;47.18
68656;BME280;55638;51.122;13.606;2023-12-28T03:38:35;99843.22;;;8.70;46.94
68656;BME280;55638;51.122;13.606;2023-12-28T03:40:07;99849.56;;;8.69;46.99
68656;BME280;55638;51.122;13.606;2023-12-28T03:41:39;99833.56;;;8.67;46.92
68656;BME280;55638;51.122;13.606;2023-12-28T03:43:12;99846.28;;;8.65;46.66
68656;BME280;55638;51.122;13.606;2023-12-28T03:44:44;99845.41;;;8.65;46.84
68656;BME280;55638;51.122;13.606;2023-12-28T03:46:16;99849.09;;;8.64;46.76
68656;BME280;55638;51.122;13.606;2023-12-28T03:47:48;99850.19;;;8.61;46.40
68656;BME280;55638;51.122;13.606;2023-12-28T03:49:21;99852.88;;;8.61;46.32
68656;BME280;55638;51.122;13.606;2023-12-28T03:50:53;99855.56;;;8.61;46.38
68656;BME280;55638;51.122;13.606;2023-12-28T03:52:26;99849.94;;;8.64;46.26
68656;BME280;55638;51.122;13.606;2023-12-28T03:53:58;99866.91;;;8.65;46.44
68656;BME280;55638;51.122;13.606;2023-12-28T03:55:30;99850.28;;;8.71;46.55
68656;BME280;55638;51.122;13.606;2023-12-28T03:57:02;99861.63;;;8.74;46.58
68656;BME280;55638;51.122;13.606;2023-12-28T03:58:34;99856.00;;;8.77;46.38
68656;BME280;55638;51.122;13.606;2023-12-28T04:00:06;99858.09;;;8.85;46.94
68656;BME280;55638;51.122;13.606;2023-12-28T04:01:43;99850.63;;;8.89;46.20
68656;BME280;55638;51.122;13.606;2023-12-28T04:03:15;99852.94;;;8.93;46.52
68656;BME280;55638;51.122;13.606;2023-12-28T04:04:48;99852.44;;;8.99;46.00
68656;BME280;55638;51.122;13.606;2023-12-28T04:06:20;99843.00;;;9.05;45.94
68656;BME280;55638;51.122;13.606;2023-12-28T04:07:51;99848.00;;;9.10;45.55
68656;BME280;55638;51.122;13.606;2023-12-28T04:09:23;99839.44;;;9.16;45.63
68656;BME280;55638;51.122;13.606;2023-12-28T04:10:56;99839.66;;;9.24;45.75
68656;BME280;55638;51.122;13.606;2023-12-28T04:12:28;99842.69;;;9.31;45.50
68656;BME280;55638;51.122;13.606;2023-12-28T04:14:00;99850.09;;;9.38;45.49
68656;BME280;55638;51.122;13.606;2023-12-28T04:15:32;99854.97;;;9.44;45.39
68656;BME280;55638;51.122;13.606;2023-12-28T04:17:04;99840.03;;;9.52;45.43
68656;BME280;55638;51.122;13.606;2023-12-28T04:18:36;99816.88;;;9.60;45.47
68656;BME280;55638;51.122;13.606;2023-12-28T04:20:08;99858.56;;;9.66;45.01
68656;BME280;55638;51.122;13.606;2023-12-28T04:21:43;99845.56;;;9.71;42.37
68656;BME280;55638;51.122;13.606;2023-12-28T04:23:16;99845.03;;;9.77;44.60
68656;BME280;55638;51.122;13.606;2023-12-28T04:24:48;99840.81;;;9.84;44.86
68656;BME280;55638;51.122;13.606;2023-12-28T04:26:19;99842.28;;;9.88;44.35
68656;BME280;55638;51.122;13.606;2023-12-28T04:27:54;99840.31;;;9.90;43.75
68656;BME280;55638;51.122;13.606;2023-12-28T04:29:26;99837.09;;;9.96;44.19
68656;BME280;55638;51.122;13.606;2023-12-28T04:30:58;99834.13;;;10.00;44.07
68656;BME280;55638;51.122;13.606;2023-12-28T04:32:33;99839.09;;;10.04;44.27
68656;BME280;55638;51.122;13.606;2023-12-28T04:34:07;99846.06;;;10.07;44.29
68656;BME280;55638;51.122;13.606;2023-12-28T04:35:39;99851.19;;;10.10;44.01
68656;BME280;55638;51.122;13.606;2023-12-28T04:37:11;99855.47;;;10.12;44.17
68656;BME280;55638;51.122;13.606;2023-12-28T04:38:43;99861.28;;;10.17;44.38
68656;BME280;55638;51.122;13.606;2023-12-28T04:40:15;99847.69;;;10.19;44.44
68656;BME280;55638;51.122;13.606;2023-12-28T04:41:47;99859.19;;;10.21;44.24
68656;BME280;55638;51.122;13.606;2023-12-28T04:43:19;99853.53;;;10.24;44.38
68656;BME280;55638;51.122;13.606;2023-12-28T04:44:50;99849.84;;;10.25;44.33
68656;BME280;55638;51.122;13.606;2023-12-28T04:46:22;99851.28;;;10.29;44.36
68656;BME280;55638;51.122;13.606;2023-12-28T04:47:54;99836.13;;;10.28;44.10
68656;BME280;55638;51.122;13.606;2023-12-28T04:49:27;99826.91;;;10.31;44.17
68656;BME280;55638;51.122;13.606;2023-12-28T04:51:02;99838.53;;;10.31;44.18
68656;BME280;55638;51.122;13.606;2023-12-28T04:52:34;99842.78;;;10.34;44.40
68656;BME280;55638;51.122;13.606;2023-12-28T04:54:06;99838.53;;;10.31;44.26
68656;BME280;55638;51.122;13.606;2023-12-28T04:55:38;99845.63;;;10.32;44.34
68656;BME280;55638;51.122;13.606;2023-12-28T04:57:10;99836.53;;;10.33;44.21
68656;BME280;55638;51.122;13.606;2023-12-28T04:58:42;99842.66;;;10.35;44.29
68656;BME280;55638;51.122;13.606;2023-12-28T05:00:14;99838.28;;;10.34;44.47
68656;BME280;55638;51.122;13.606;2023-12-28T05:01:46;99839.97;;;10.35;44.33
68656;BME280;55638;51.122;13.606;2023-12-28T05:03:19;99841.66;;;10.36;44.52
68656;BME280;55638;51.122;13.606;2023-12-28T05:04:51;99847.06;;;10.36;43.83
68656;BME280;55638;51.122;13.606;2023-12-28T05:06:23;99848.63;;;10.39;44.19
68656;BME280;55638;51.122;13.606;2023-12-28T05:07:55;99853.91;;;10.40;44.37
68656;BME280;55638;51.122;13.606;2023-12-28T05:09:28;99854.75;;;10.41;44.48
68656;BME280;55638;51.122;13.606;2023-12-28T05:10:59;99862.00;;;10.40;44.71
68656;BME280;55638;51.122;13.606;2023-12-28T05:12:31;99860.00;;;10.42;44.75
68656;BME280;55638;51.122;13.606;2023-12-28T05:14:14;99876.03;;;10.44;44.91
68656;BME280;55638;51.122;13.606;2023-12-28T05:15:46;99879.59;;;10.45;44.85
68656;BME280;55638;51.122;13.606;2023-12-28T05:17:18;99882.28;;;10.45;44.87
68656;BME280;55638;51.122;13.606;2023-12-28T05:18:50;99886.81;;;10.44;44.99
68656;BME280;55638;51.122;13.606;2023-12-28T05:20:22;99893.06;;;10.45;45.16
68656;BME280;55638;51.122;13.606;2023-12-28T05:21:54;99885.94;;;10.43;45.03
68656;BME280;55638;51.122;13.606;2023-12-28T05:23:26;99885.94;;;10.43;45.15
68656;BME280;55638;51.122;13.606;2023-12-28T05:24:58;99901.13;;;10.45;45.22
68656;BME280;55638;51.122;13.606;2023-12-28T05:26:30;99888.63;;;10.43;45.28
68656;BME280;55638;51.122;13.606;2023-12-28T05:28:02;99885.94;;;10.43;45.35
68656;BME280;55638;51.122;13.606;2023-12-28T05:29:34;99895.03;;;10.42;45.29
68656;BME280;55638;51.122;13.606;2023-12-28T05:31:06;99899.56;;;10.42;45.44
68656;BME280;55638;51.122;13.606;2023-12-28T05:32:38;99911.19;;;10.42;45.58
68656;BME280;55638;51.122;13.606;2023-12-28T05:34:11;99913.03;;;10.42;45.38
68656;BME280;55638;51.122;13.606;2023-12-28T05:35:43;99906.91;;;10.40;45.22
68656;BME280;55638;51.122;13.606;2023-12-28T05:37:15;99911.44;;;10.39;45.50
68656;BME280;55638;51.122;13.606;2023-12-28T05:38:47;99911.44;;;10.39;45.68
68656;BME280;55638;51.122;13.606;2023-12-28T05:40:19;99901.66;;;10.38;45.71
68656;BME280;55638;51.122;13.606;2023-12-28T05:41:50;99906.22;;;10.38;45.73
68656;BME280;55638;51.122;13.606;2023-12-28T05:43:22;99912.56;;;10.37;45.89
68656;BME280;55638;51.122;13.606;2023-12-28T05:44:54;99915.41;;;10.35;45.87
68656;BME280;55638;51.122;13.606;2023-12-28T05:46:26;99920.81;;;10.35;46.02
68656;BME280;55638;51.122;13.606;2023-12-28T05:47:58;99929.00;;;10.34;46.08
68656;BME280;55638;51.122;13.606;2023-12-28T05:49:30;99920.06;;;10.33;46.12
68656;BME280;55638;51.122;13.606;2023-12-28T05:51:03;99924.75;;;10.31;46.01
68656;BME280;55638;51.122;13.606;2023-12-28T05:52:35;99926.44;;;10.32;46.26
68656;BME280;55638;51.122;13.606;2023-12-28T05:54:07;99928.16;;;10.33;46.39
68656;BME280;55638;51.122;13.606;2023-12-28T05:55:41;99925.44;;;10.33;46.32
68656;BME280;55638;51.122;13.606;2023-12-28T05:57:13;99925.44;;;10.33;46.39
68656;BME280;55638;51.122;13.606;2023-12-28T05:58:44;99932.56;;;10.34;46.34
68656;BME280;55638;51.122;13.606;2023-12-28T06:00:16;99942.34;;;10.35;46.49
68656;BME280;55638;51.122;13.606;2023-12-28T06:01:48;99937.97;;;10.34;46.40
68656;BME280;55638;51.122;13.606;2023-12-28T06:03:20;99927.88;;;10.36;46.61
68656;BME280;55638;51.122;13.606;2023-12-28T06:04:53;99929.72;;;10.36;46.63
68656;BME280;55638;51.122;13.606;2023-12-28T06:06:25;99939.50;;;10.37;46.84
68656;BME280;55638;51.122;13.606;2023-12-28T06:07:57;99956.56;;;10.37;46.78
68656;BME280;55638;51.122;13.606;2023-12-28T06:09:29;99956.56;;;10.37;46.73
68656;BME280;55638;51.122;13.606;2023-12-28T06:11:01;99965.34;;;10.39;46.83
68656;BME280;55638;51.122;13.606;2023-12-28T06:12:33;99961.69;;;10.40;47.02
68656;BME280;55638;51.122;13.606;2023-12-28T06:14:05;99952.59;;;10.41;46.97
68656;BME280;55638;51.122;13.606;2023-12-28T06:15:37;99943.53;;;10.42;47.04
68656;BME280;55638;51.122;13.606;2023-12-28T06:17:09;99950.59;;;10.43;47.27
68656;BME280;55638;51.122;13.606;2023-12-28T06:18:41;99949.50;;;10.46;47.14
68656;BME280;55638;51.122;13.606;2023-12-28T06:20:13;99946.69;;;10.48;47.23
68656;BME280;55638;51.122;13.606;2023-12-28T06:21:45;99933.91;;;10.50;47.41
68656;BME280;55638;51.122;13.606;2023-12-28T06:23:17;99930.94;;;10.53;47.51
68656;BME280;55638;51.122;13.606;2023-12-28T06:24:49;99928.25;;;10.53;47.17
68656;BME280;55638;51.122;13.606;2023-12-28T06:26:21;99942.47;;;10.55;47.16
68656;BME280;55638;51.122;13.606;2023-12-28T06:27:53;99945.00;;;10.56;47.03
68656;BME280;55638;51.122;13.606;2023-12-28T06:29:25;99935.09;;;10.57;47.30
68656;BME280;55638;51.122;13.606;2023-12-28T06:30:58;99923.59;;;10.55;46.98
68656;BME280;55638;51.122;13.606;2023-12-28T06:32:33;99916.09;;;10.58;47.19
68656;BME280;55638;51.122;13.606;2023-12-28T06:34:05;99923.19;;;10.59;47.23
68656;BME280;55638;51.122;13.606;2023-12-28T06:35:38;99926.59;;;10.61;47.28
68656;BME280;55638;51.122;13.606;2023-12-28T06:37:10;99926.44;;;10.63;47.45
68656;BME280;55638;51.122;13.606;2023-12-28T06:38:42;99911.28;;;10.62;47.36
68656;BME280;55638;51.122;13.606;2023-12-28T06:40:14;99924.63;;;10.63;47.28
68656;BME280;55638;51.122;13.606;2023-12-28T06:41:48;99912.00;;;10.64;46.99
68656;BME280;55638;51.122;13.606;2023-12-28T06:43:20;99909.31;;;10.64;47.27
68656;BME280;55638;51.122;13.606;2023-12-28T06:44:52;99919.09;;;10.65;47.46
68656;BME280;55638;51.122;13.606;2023-12-28T06:46:24;99902.84;;;10.67;47.40
68656;BME280;55638;51.122;13.606;2023-12-28T06:47:56;99911.00;;;10.65;47.25
68656;BME280;55638;51.122;13.606;2023-12-28T06:49:28;99919.09;;;10.65;47.33
68656;BME280;55638;51.122;13.606;2023-12-28T06:51:00;99934.41;;;10.64;47.24
68656;BME280;55638;51.122;13.606;2023-12-28T06:52:32;99929.16;;;10.63;47.19
68656;BME280;55638;51.122;13.606;2023-12-28T06:54:04;99924.63;;;10.63;47.22
68656;BME280;55638;51.122;13.606;2023-12-28T06:55:36;99935.53;;;10.62;47.05
68656;BME280;55638;51.122;13.606;2023-12-28T06:57:08;99948.00;;;10.63;47.31
68656;BME280;55638;51.122;13.606;2023-12-28T06:58:40;99946.47;;;10.60;46.90
68656;BME280;55638;51.122;13.606;2023-12-28T07:00:12;99937.38;;;10.61;47.28
68656;BME280;55638;51.122;13.606;2023-12-28T07:01:45;99925.75;;;10.61;47.31
68656;BME280;55638;51.122;13.606;2023-12-28T07:03:17;99937.53;;;10.60;47.09
68656;BME280;55638;51.122;13.606;2023-12-28T07:04:49;99937.53;;;10.60;46.99
68656;BME280;55638;51.122;13.606;2023-12-28T07:06:21;99942.19;;;10.58;47.04
68656;BME280;55638;51.122;13.606;2023-12-28T07:07:53;99952.97;;;10.58;47.13
68656;BME280;55638;51.122;13.606;2023-12-28T07:09:25;99952.38;;;10.54;47.12
68656;BME280;55638;51.122;13.606;2023-12-28T07:10:57;99942.56;;;10.53;47.23
68656;BME280;55638;51.122;13.606;2023-12-28T07:12:31;99956.34;;;10.50;46.98
68656;BME280;55638;51.122;13.606;2023-12-28T07:14:03;99962.00;;;10.47;47.00
68656;BME280;55638;51.122;13.606;2023-12-28T07:15:35;99971.19;;;10.45;47.06
68656;BME280;55638;51.122;13.606;2023-12-28T07:17:07;99960.41;;;10.45;47.35
68656;BME280;55638;51.122;13.606;2023-12-28T07:18:39;99965.22;;;10.41;47.13
68656;BME280;55638;51.122;13.606;2023-12-28T07:20:11;99974.16;;;10.41;47.34
68656;BME280;55638;51.122;13.606;2023-12-28T07:21:43;99971.72;;;10.38;47.09
68656;BME280;55638;51.122;13.606;2023-12-28T07:23:15;99967.44;;;10.36;46.25
68656;BME280;55638;51.122;13.606;2023-12-28T07:24:47;99983.75;;;10.34;47.21
68656;BME280;55638;51.122;13.606;2023-12-28T07:26:19;99967.59;;;10.34;47.43
68656;BME280;55638;51.122;13.606;2023-12-28T07:27:51;99965.16;;;10.31;47.32
68656;BME280;55638;51.122;13.606;2023-12-28T07:29:23;99976.91;;;10.30;47.45
68656;BME280;55638;51.122;13.606;2023-12-28T07:30:58;99977.91;;;10.29;47.49
68656;BME280;55638;51.122;13.606;2023-12-28T07:32:30;99986.25;;;10.26;47.57
68656;BME280;55638;51.122;13.606;2023-12-28T07:34:02;99989.19;;;10.23;47.55
68656;BME280;55638;51.122;13.606;2023-12-28T07:35:34;99984.06;;;10.20;47.66
68656;BME280;55638;51.122;13.606;2023-12-28T07:37:06;99976.97;;;10.19;47.57
68656;BME280;55638;51.122;13.606;2023-12-28T07:38:38;99976.50;;;10.14;47.57
68656;BME280;55638;51.122;13.606;2023-12-28T07:40:12;99970.41;;;10.12;47.63
68656;BME280;55638;51.122;13.606;2023-12-28T07:41:44;99970.69;;;10.09;47.66
68656;BME280;55638;51.122;13.606;2023-12-28T07:43:16;99960.88;;;10.08;47.64
68656;BME280;55638;51.122;13.606;2023-12-28T07:44:48;99961.16;;;10.05;47.73
68656;BME280;55638;51.122;13.606;2023-12-28T07:46:20;99969.25;;;10.05;47.80
68656;BME280;55638;51.122;13.606;2023-12-28T07:47:52;99969.34;;;10.03;47.71
68656;BME280;55638;51.122;13.606;2023-12-28T07:49:24;99974.88;;;10.02;47.90
68656;BME280;55638;51.122;13.606;2023-12-28T07:50:57;99981.22;;;10.01;48.08
68656;BME280;55638;51.122;13.606;2023-12-28T07:52:29;99983.22;;;9.99;47.77
68656;BME280;55638;51.122;13.606;2023-12-28T07:54:01;99987.72;;;9.98;47.98
68656;BME280;55638;51.122;13.606;2023-12-28T07:55:33;99990.56;;;9.96;48.08
68656;BME280;55638;51.122;13.606;2023-12-28T07:57:05;99984.31;;;9.96;48.11
68656;BME280;55638;51.122;13.606;2023-12-28T07:58:37;99983.47;;;9.95;48.06
68656;BME280;55638;51.122;13.606;2023-12-28T08:00:11;99988.88;;;9.95;48.19
68656;BME280;55638;51.122;13.606;2023-12-28T08:01:43;99983.47;;;9.95;48.34
68656;BME280;55638;51.122;13.606;2023-12-28T08:03:15;99978.34;;;9.92;48.31
68656;BME280;55638;51.122;13.606;2023-12-28T08:04:47;99988.13;;;9.93;48.41
68656;BME280;55638;51.122;13.606;2023-12-28T08:06:20;99990.09;;;9.91;48.29